Time;durP1;ratioP1;P1;durP2;ratioP2;P2;SDS_P1;SDS_P2;PMS_P1;PMS_P2;Temp;Humidity;BMP_temperature;BMP_pressure;BME280_temperature;BME280_humidity;BME280_pressure;Samples;Min_cycle;Max_cycle;Signal;HPM_P1;HPM_P2
2023/06/27 00:02:15;;;;;;;;;1.00;1.00;;;;;20.40;43.05;101395.59;5153960;27;48898;-75
2023/06/27 00:04:40;;;;;;;;;2.00;2.00;;;;;20.27;43.36;101403.63;5154483;27;45256;-71
2023/06/27 00:07:05;;;;;;;;;2.00;2.00;;;;;20.17;43.47;101396.34;5154380;27;45303;-72
2023/06/27 00:09:31;;;;;;;;;2.00;2.00;;;;;20.14;43.10;101400.94;5154131;27;45346;-72
2023/06/27 00:11:56;;;;;;;;;2.00;2.00;;;;;20.11;43.43;101405.59;5153678;27;53878;-72
2023/06/27 00:14:21;;;;;;;;;2.00;2.00;;;;;20.08;43.42;101405.81;5153852;27;45310;-72
2023/06/27 00:16:47;;;;;;;;;2.00;2.00;;;;;20.02;44.04;101398.22;5153701;27;45367;-73
2023/06/27 00:19:12;;;;;;;;;1.00;1.00;;;;;19.99;43.46;101402.81;5154066;27;45530;-72
2023/06/27 00:21:38;;;;;;;;;1.25;1.25;;;;;19.96;44.08;101391.50;5153468;27;45463;-73
2023/06/27 00:24:03;;;;;;;;;3.00;3.00;;;;;19.94;43.80;101391.56;5124366;27;45333;-74
2023/06/27 00:26:29;;;;;;;;;1.50;1.50;;;;;19.99;43.73;101413.47;5140654;27;45318;-72
2023/06/27 00:28:55;;;;;;;;;1.00;1.00;;;;;19.98;44.07;101409.09;5140104;27;45396;-73
2023/06/27 00:31:21;;;;;;;;;2.00;2.00;;;;;19.87;44.11;101400.94;5139440;27;45834;-73
2023/06/27 00:33:47;;;;;;;;;1.25;1.25;;;;;19.92;43.98;101419.34;5139725;27;45391;-75
2023/06/27 00:36:15;;;;;;;;;2.25;2.25;;;;;19.81;44.75;101412.88;5139361;27;45498;-72
2023/06/27 00:38:41;;;;;;;;;1.75;1.75;;;;;19.76;44.63;101414.13;5139600;27;45227;-74
2023/06/27 00:41:06;;;;;;;;;0.75;0.75;;;;;19.71;44.47;101412.63;5139242;27;46185;-72
2023/06/27 00:43:32;;;;;;;;;1.00;1.00;;;;;19.67;45.08;101402.25;5139611;27;45729;-72
2023/06/27 00:45:57;;;;;;;;;1.25;1.25;;;;;19.64;44.82;101402.47;5139936;27;45910;-72
2023/06/27 00:48:23;;;;;;;;;2.00;2.00;;;;;19.61;45.34;101411.53;5139451;27;45624;-72
2023/06/27 00:50:51;;;;;;;;;2.00;2.00;;;;;19.46;45.27;101396.50;5139045;27;47088;-72
2023/06/27 00:53:17;;;;;;;;;1.00;1.00;;;;;19.50;45.17;101411.38;5139355;27;45519;-71
2023/06/27 00:55:43;;;;;;;;;1.00;1.00;;;;;19.53;45.40;101416.50;5139296;27;45499;-75
2023/06/27 00:58:10;;;;;;;;;1.00;1.00;;;;;19.45;45.68;101400.13;5120777;27;45385;-72
2023/06/27 01:00:35;;;;;;;;;2.00;2.00;;;;;19.47;45.36;101412.41;5138999;27;46628;-74
2023/06/27 01:03:02;;;;;;;;;2.50;2.50;;;;;19.44;45.23;101403.75;5139236;27;45250;-72
2023/06/27 01:05:29;;;;;;;;;1.00;1.00;;;;;19.36;45.53;101390.91;5139214;27;45177;-72
2023/06/27 01:08:01;;;;;;;;;1.00;1.00;;;;;19.38;45.34;101415.66;5139418;27;45610;-73
2023/06/27 01:10:37;;;;;;;;;2.75;2.00;;;;;19.36;45.33;101407.78;5138657;27;46360;-72
2023/06/27 01:13:09;;;;;;;;;2.00;2.00;;;;;19.40;45.68;101413.75;5139445;27;45207;-71
2023/06/27 01:15:35;;;;;;;;;2.00;2.00;;;;;19.37;45.52;101401.50;5140022;27;45429;-72
2023/06/27 01:18:02;;;;;;;;;2.00;2.00;;;;;19.35;45.38;101402.53;5122223;27;45400;-72
2023/06/27 01:20:28;;;;;;;;;1.00;1.00;;;;;19.33;45.20;101399.97;5140293;27;45530;-75
2023/06/27 01:23:06;;;;;;;;;2.50;2.50;;;;;19.37;45.44;101401.50;5139597;27;45154;-74
2023/06/27 01:25:31;;;;;;;;;1.00;1.00;;;;;19.34;45.76;101400.81;5139387;27;45405;-72
2023/06/27 01:27:57;;;;;;;;;2.00;2.00;;;;;19.35;45.47;101398.06;5120446;27;45657;-74
2023/06/27 01:30:22;;;;;;;;;2.25;1.50;;;;;19.32;45.99;101397.38;5138667;27;51048;-74
2023/06/27 01:32:56;;;;;;;;;1.00;1.00;;;;;19.26;46.01;101402.16;5138946;27;45403;-76
2023/06/27 01:35:40;;;;;;;;;1.75;1.75;;;;;19.19;46.29;101394.66;5138069;27;45394;-76
2023/06/27 01:38:11;;;;;;;;;2.00;2.00;;;;;19.18;46.41;101390.28;5139588;27;45888;-71
2023/06/27 01:40:39;;;;;;;;;2.25;2.25;;;;;19.01;46.52;101375.34;5139010;27;46234;-72
2023/06/27 01:43:10;;;;;;;;;1.75;1.75;;;;;19.07;46.64;101383.81;5138770;27;45160;-74
2023/06/27 01:45:38;;;;;;;;;2.00;2.00;;;;;19.09;46.88;101392.59;5103317;27;45267;-71
2023/06/27 01:48:04;;;;;;;;;2.00;2.00;;;;;19.11;46.44;101388.03;5139367;27;45242;-73
2023/06/27 01:50:29;;;;;;;;;1.00;1.00;;;;;19.08;46.76;101382.00;5121155;27;47461;-74
2023/06/27 01:52:56;;;;;;;;;2.00;2.00;;;;;19.09;46.67;101389.94;5144751;27;45579;-71
2023/06/27 01:55:21;;;;;;;;;2.00;2.00;;;;;18.96;47.18;101379.13;5123768;27;45416;-72
2023/06/27 01:57:49;;;;;;;;;2.00;2.00;;;;;18.96;47.43;101378.25;5141161;27;45408;-74
2023/06/27 02:00:15;;;;;;;;;2.00;2.00;;;;;18.98;47.24;101387.06;5139885;27;46248;-76
2023/06/27 02:02:40;;;;;;;;;4.50;4.50;;;;;18.99;47.46;101391.44;5139424;27;45332;-74
2023/06/27 02:05:07;;;;;;;;;4.00;3.00;;;;;19.01;47.51;101392.19;5139015;27;45327;-74
2023/06/27 02:07:32;;;;;;;;;0.00;0.00;;;;;18.92;47.30;101371.41;5139463;27;45316;-75
2023/06/27 02:09:58;;;;;;;;;3.00;3.00;;;;;18.99;47.47;101394.09;5138022;27;46586;-77
2023/06/27 02:12:23;;;;;;;;;1.75;1.75;;;;;18.81;47.94;101370.28;5119458;27;45419;-77
2023/06/27 02:14:48;;;;;;;;;2.00;2.00;;;;;18.93;47.90;101391.78;5119790;27;45234;-78
2023/06/27 02:17:13;;;;;;;;;1.25;1.25;;;;;18.88;48.03;101391.22;5138730;27;45206;-74
2023/06/27 02:19:39;;;;;;;;;2.75;2.75;;;;;18.87;48.05;101395.72;5119224;27;47456;-75
2023/06/27 02:22:05;;;;;;;;;2.00;2.00;;;;;18.86;48.24;101394.00;5119910;27;45967;-72
2023/06/27 02:24:30;;;;;;;;;2.75;2.75;;;;;18.87;47.98;101398.38;5138247;27;45331;-74
2023/06/27 02:26:55;;;;;;;;;2.00;2.00;;;;;18.83;48.00;101395.03;5138485;27;45498;-73
2023/06/27 02:29:21;;;;;;;;;2.00;2.00;;;;;18.83;48.09;101394.19;5138492;27;58021;-75
2023/06/27 02:31:46;;;;;;;;;1.75;1.75;;;;;18.82;48.23;101406.66;5138602;27;45438;-74
2023/06/27 02:34:12;;;;;;;;;2.25;2.25;;;;;18.78;48.71;101402.47;5139250;27;45321;-76
2023/06/27 02:36:38;;;;;;;;;2.25;2.25;;;;;18.77;48.42;101383.91;5141587;27;45481;-74
2023/06/27 02:39:03;;;;;;;;;2.00;2.00;;;;;18.79;48.89;101400.66;5140519;27;45918;-75
2023/06/27 02:41:28;;;;;;;;;2.00;2.00;;;;;18.82;48.69;101403.13;5123152;27;45446;-79
2023/06/27 02:43:54;;;;;;;;;3.00;3.00;;;;;18.74;48.72;101394.75;5145249;27;45247;-76
2023/06/27 02:46:19;;;;;;;;;3.00;3.00;;;;;18.77;48.58;101397.25;5143738;27;45434;-74
2023/06/27 02:48:45;;;;;;;;;2.00;2.00;;;;;18.81;48.71;101412.94;5140849;27;45403;-75
2023/06/27 02:51:10;;;;;;;;;2.50;2.50;;;;;18.76;48.92;101393.69;5137965;27;45280;-72
2023/06/27 02:53:35;;;;;;;;;3.25;3.25;;;;;18.83;49.06;101411.03;5137744;27;45337;-76
2023/06/27 02:56:02;;;;;;;;;2.00;2.00;;;;;18.82;49.44;101411.13;5137474;27;45160;-70
2023/06/27 02:58:31;;;;;;;;;2.75;2.75;;;;;18.77;50.02;101402.56;5118249;27;47423;-77
2023/06/27 03:01:03;;;;;;;;;3.00;3.00;;;;;18.77;49.57;101394.56;5137451;27;45435;-74
2023/06/27 03:03:28;;;;;;;;;3.00;3.00;;;;;18.76;50.03;101398.19;5137827;27;45384;-76
2023/06/27 03:05:54;;;;;;;;;1.75;1.75;;;;;18.77;50.00;101400.75;5145848;27;45520;-74
2023/06/27 03:08:19;;;;;;;;;2.50;2.50;;;;;18.71;50.02;101398.47;5124918;27;48424;-75
2023/06/27 03:10:44;;;;;;;;;2.00;2.00;;;;;18.74;50.18;101392.09;5143410;27;45254;-76
2023/06/27 03:13:11;;;;;;;;;3.25;3.25;;;;;18.76;50.08;101396.38;5141976;27;45228;-75
2023/06/27 03:15:36;;;;;;;;;3.00;3.00;;;;;18.72;49.92;101394.00;5138018;27;45559;-77
2023/06/27 03:18:01;;;;;;;;;2.00;2.00;;;;;18.69;50.24;101395.03;5137381;27;46425;-76
2023/06/27 03:20:27;;;;;;;;;2.25;2.25;;;;;18.52;50.44;101383.59;5137339;27;45323;-76
2023/06/27 03:22:52;;;;;;;;;0.00;0.00;;;;;18.61;50.22;101395.53;5136896;27;45331;-73
2023/06/27 03:25:18;;;;;;;;;3.00;3.00;;;;;18.63;50.39;101385.63;5137392;27;45334;-76
2023/06/27 03:27:47;;;;;;;;;3.00;3.00;;;;;18.60;50.42;101384.94;5137051;27;45577;-75
2023/06/27 03:30:13;;;;;;;;;2.00;2.00;;;;;18.56;50.49;101384.28;5137932;27;45737;-75
2023/06/27 03:32:38;;;;;;;;;3.00;3.00;;;;;18.61;50.77;101399.97;5137442;27;45288;-77
2023/06/27 03:35:04;;;;;;;;;2.75;2.75;;;;;18.54;50.67;101384.38;5137386;27;45313;-75
2023/06/27 03:37:36;;;;;;;;;2.50;2.50;;;;;18.58;50.59;101386.84;5136885;27;46847;-77
2023/06/27 03:40:02;;;;;;;;;4.00;4.00;;;;;18.54;50.66;101384.38;5137129;27;45193;-78
2023/06/27 03:42:27;;;;;;;;;3.00;3.00;;;;;18.52;50.93;101372.06;5137064;27;45284;-77
2023/06/27 03:44:52;;;;;;;;;3.00;3.00;;;;;18.60;50.96;101377.81;5118575;27;45476;-79
2023/06/27 03:47:18;;;;;;;;;2.75;2.75;;;;;18.58;50.94;101373.53;5137079;27;45384;-75
2023/06/27 03:49:43;;;;;;;;;1.50;1.50;;;;;18.57;50.58;101367.34;5137400;27;45815;-75
2023/06/27 03:52:10;;;;;;;;;2.00;2.00;;;;;18.62;51.17;101383.91;5118417;27;45566;-76
2023/06/27 03:54:35;;;;;;;;;2.75;2.75;;;;;18.56;50.87;101372.75;5118429;27;45356;-75
2023/06/27 03:57:01;;;;;;;;;2.75;2.75;;;;;18.63;50.81;101382.09;5136070;27;45380;-75
2023/06/27 03:59:26;;;;;;;;;3.75;3.75;;;;;18.61;51.24;101376.88;5139017;27;45292;-75
2023/06/27 04:01:51;;;;;;;;;1.25;1.25;;;;;18.68;51.09;101375.53;5140498;27;45341;-76
2023/06/27 04:04:16;;;;;;;;;5.00;5.00;;;;;18.68;51.40;101366.66;5140658;27;45297;-76
2023/06/27 04:06:42;;;;;;;;;1.75;1.75;;;;;18.61;51.26;101363.56;5140362;27;46449;-73
2023/06/27 04:09:07;;;;;;;;;3.25;3.25;;;;;18.76;51.40;101388.38;5140422;27;45477;-78
2023/06/27 04:11:33;;;;;;;;;3.00;3.00;;;;;18.79;51.58;101390.84;5141105;27;45352;-76
2023/06/27 04:14:02;;;;;;;;;3.50;3.50;;;;;18.68;51.74;101380.88;5141673;27;45286;-78
2023/06/27 04:16:27;;;;;;;;;4.25;4.00;;;;;18.69;52.00;101381.72;5122307;27;47384;-77
2023/06/27 04:18:53;;;;;;;;;2.00;2.00;;;;;18.71;51.91;101387.81;5140134;27;45288;-76
2023/06/27 04:21:18;;;;;;;;;2.50;2.50;;;;;18.69;52.13;101387.91;5140005;27;45890;-74
2023/06/27 04:23:44;;;;;;;;;2.50;2.50;;;;;18.78;52.42;101386.47;5140336;27;45467;-72
2023/06/27 04:26:14;;;;;;;;;3.00;3.00;;;;;18.82;51.81;101390.66;5121558;27;45435;-72
2023/06/27 04:28:40;;;;;;;;;4.00;4.00;;;;;18.84;52.01;101403.91;5140237;27;45311;-75
2023/06/27 04:31:06;;;;;;;;;2.00;2.00;;;;;18.84;51.97;101385.25;5140283;27;45366;-77
2023/06/27 04:33:31;;;;;;;;;2.75;2.75;;;;;18.95;51.86;101390.75;5139869;27;45579;-75
2023/06/27 04:36:04;;;;;;;;;3.00;3.00;;;;;19.05;51.92;101383.03;5139741;27;46347;-75
2023/06/27 04:38:30;;;;;;;;;2.50;2.50;;;;;19.16;52.03;101385.03;5121131;27;45552;-73
2023/06/27 04:40:55;;;;;;;;;3.25;3.25;;;;;19.23;51.75;101388.19;5141883;27;45384;-75
2023/06/27 04:43:21;;;;;;;;;2.75;2.75;;;;;19.31;51.67;101390.34;5144477;27;45313;-76
2023/06/27 04:45:46;;;;;;;;;3.00;3.00;;;;;19.38;52.06;101389.00;5141985;27;45314;-73
2023/06/27 04:48:12;;;;;;;;;4.25;4.00;;;;;19.41;51.40;101379.00;5140425;27;45300;-75
2023/06/27 04:50:37;;;;;;;;;1.00;1.00;;;;;19.35;51.55;101362.50;5140150;27;52918;-75
2023/06/27 04:53:05;;;;;;;;;3.00;3.00;;;;;19.40;51.84;101379.06;5145280;27;45195;-77
2023/06/27 04:55:32;;;;;;;;;3.25;3.25;;;;;19.41;52.00;101367.44;5146348;27;45360;-78
2023/06/27 04:57:57;;;;;;;;;3.00;3.00;;;;;19.48;52.23;101381.25;5123852;27;45759;-72
2023/06/27 05:00:22;;;;;;;;;3.75;3.50;;;;;19.54;52.26;101367.50;5143157;27;45391;-75
2023/06/27 05:02:48;;;;;;;;;2.00;2.00;;;;;19.59;51.89;101370.72;5139650;27;45303;-73
2023/06/27 05:05:13;;;;;;;;;3.75;3.75;;;;;19.70;52.13;101370.88;5139486;27;61207;-76
2023/06/27 05:07:38;;;;;;;;;3.00;3.00;;;;;19.69;52.02;101361.16;5139290;27;45356;-75
2023/06/27 05:10:04;;;;;;;;;5.00;5.00;;;;;19.72;52.17;101362.78;5138822;27;45374;-74
2023/06/27 05:12:29;;;;;;;;;5.75;5.75;;;;;19.87;51.76;101374.22;5139093;27;45429;-73
2023/06/27 05:14:55;;;;;;;;;3.00;3.00;;;;;20.02;52.00;101379.53;5138657;27;46120;-78
2023/06/27 05:17:20;;;;;;;;;2.50;2.50;;;;;20.07;52.02;101386.28;5139075;27;45331;-77
2023/06/27 05:19:45;;;;;;;;;5.25;4.00;;;;;20.06;51.48;101383.69;5139486;27;45281;-74
2023/06/27 05:22:12;;;;;;;;;2.00;2.00;;;;;19.95;51.83;101382.59;5139307;27;45289;-75
2023/06/27 05:24:38;;;;;;;;;4.75;4.75;;;;;19.90;52.40;101390.06;5139296;27;46396;-78
2023/06/27 05:27:03;;;;;;;;;2.75;2.75;;;;;19.92;52.59;101393.50;5138992;27;45310;-74
2023/06/27 05:29:29;;;;;;;;;4.00;4.00;;;;;19.98;52.72;101393.09;5139043;27;45395;-77
2023/06/27 05:31:54;;;;;;;;;5.75;5.75;;;;;20.03;52.72;101394.59;5139101;27;45156;-78
2023/06/27 05:34:19;;;;;;;;;2.25;2.25;;;;;20.16;52.08;101399.97;5139154;27;45246;-74
2023/06/27 05:36:44;;;;;;;;;3.50;3.50;;;;;20.20;52.68;101401.47;5139201;27;45262;-77
2023/06/27 05:39:10;;;;;;;;;4.25;4.25;;;;;20.25;52.06;101405.56;5138321;27;57182;-75
2023/06/27 05:41:35;;;;;;;;;6.25;6.25;;;;;20.40;52.63;101413.47;5138630;27;45543;-75
2023/06/27 05:44:01;;;;;;;;;4.50;4.50;;;;;20.49;52.32;101402.16;5139579;27;45379;-75
2023/06/27 05:46:26;;;;;;;;;3.25;3.25;;;;;20.60;51.85;101404.06;5139556;27;45261;-76
2023/06/27 05:48:51;;;;;;;;;4.00;4.00;;;;;20.66;51.98;101395.59;5138758;27;45750;-74
2023/06/27 05:51:17;;;;;;;;;3.00;3.00;;;;;20.72;52.12;101386.31;5138899;27;45580;-75
2023/06/27 05:53:42;;;;;;;;;6.00;6.00;;;;;20.77;52.24;101388.69;5138599;27;45443;-77
2023/06/27 05:56:08;;;;;;;;;10.25;10.25;;;;;20.86;51.50;101383.53;5138415;27;45339;-74
2023/06/27 05:58:36;;;;;;;;;5.75;5.75;;;;;21.02;51.61;101386.00;5138520;27;45345;-75
2023/06/27 06:01:02;;;;;;;;;8.00;8.00;;;;;21.08;51.44;101387.34;5139138;27;45328;-75
2023/06/27 06:03:27;;;;;;;;;4.50;4.50;;;;;21.21;51.48;101386.50;5138406;27;45683;-76
2023/06/27 06:05:53;;;;;;;;;6.75;6.75;;;;;21.24;51.50;101388.94;5138689;27;45247;-73
2023/06/27 06:08:18;;;;;;;;;10.75;10.75;;;;;21.29;51.22;101371.56;5120298;27;45250;-73
2023/06/27 06:10:45;;;;;;;;;4.25;4.25;;;;;21.39;51.06;101385.13;5139114;27;45206;-74
2023/06/27 06:13:10;;;;;;;;;11.25;11.25;;;;;21.41;51.11;101388.56;5138347;27;46402;-69
2023/06/27 06:15:35;;;;;;;;;3.50;3.50;;;;;21.43;51.04;101391.09;5137510;27;45481;-72
2023/06/27 06:18:01;;;;;;;;;4.50;4.50;;;;;21.38;51.16;101394.13;5118762;27;45409;-70
2023/06/27 06:20:29;;;;;;;;;4.00;4.00;;;;;21.31;50.98;101371.47;5701404;22;46871;-68
2023/06/27 06:22:54;;;;;;;;;3.75;3.75;;;;;21.35;51.22;101383.66;5037998;28;47210;-67
2023/06/27 06:25:19;;;;;;;;;3.25;3.25;;;;;21.27;51.12;101375.34;5056952;28;45413;-67
2023/06/27 06:27:45;;;;;;;;;5.00;5.00;;;;;21.29;51.06;101390.28;5058333;28;58703;-70
2023/06/27 06:30:11;;;;;;;;;5.50;5.50;;;;;21.15;50.98;101395.81;5060012;28;45425;-71
2023/06/27 06:32:36;;;;;;;;;3.50;3.50;;;;;21.09;51.36;101401.59;5056116;28;46368;-70
2023/06/27 06:35:02;;;;;;;;;6.75;6.00;;;;;21.04;51.58;101391.22;5053895;28;45701;-70
2023/06/27 06:37:27;;;;;;;;;3.75;3.75;;;;;21.01;51.53;101394.97;5053198;28;45431;-70
2023/06/27 06:39:52;;;;;;;;;4.25;4.25;;;;;20.92;52.41;101394.75;5053195;28;45656;-69
2023/06/27 06:42:17;;;;;;;;;6.00;6.00;;;;;21.00;52.04;101412.00;5053055;28;45536;-71
2023/06/27 06:44:44;;;;;;;;;4.50;4.50;;;;;21.00;51.89;101397.75;5055481;28;45396;-71
2023/06/27 06:47:10;;;;;;;;;5.25;5.25;;;;;20.98;52.21;101399.69;5055298;28;45442;-71
2023/06/27 06:49:35;;;;;;;;;4.00;4.00;;;;;21.05;52.04;101400.94;5056231;28;45415;-71
2023/06/27 06:52:00;;;;;;;;;6.75;6.75;;;;;21.11;52.28;101395.16;5055701;28;45188;-70
2023/06/27 06:54:26;;;;;;;;;6.00;6.00;;;;;21.17;52.06;101396.53;5055891;28;46080;-71
2023/06/27 06:56:51;;;;;;;;;5.75;5.75;;;;;21.30;52.05;101391.16;5055877;28;45943;-72
2023/06/27 06:59:16;;;;;;;;;5.75;5.75;;;;;21.36;51.67;101403.22;5055455;28;45199;-70
2023/06/27 07:01:42;;;;;;;;;5.00;5.00;;;;;21.48;52.00;101401.47;5055241;28;45436;-71
2023/06/27 07:04:08;;;;;;;;;5.75;5.75;;;;;21.55;51.38;101400.06;5055252;28;45326;-69
2023/06/27 07:06:33;;;;;;;;;3.50;3.50;;;;;21.74;50.76;101405.78;5055933;28;45563;-70
2023/06/27 07:08:58;;;;;;;;;3.50;3.50;;;;;21.82;50.68;101397.19;5056024;28;45318;-71
2023/06/27 07:11:24;;;;;;;;;4.00;4.00;;;;;21.88;50.63;101410.13;5055120;28;45425;-70
2023/06/27 07:13:49;;;;;;;;;4.75;4.75;;;;;21.93;50.46;101404.41;5055229;28;45422;-71
2023/06/27 07:16:15;;;;;;;;;2.25;2.25;;;;;21.98;50.18;101401.38;5053999;28;45489;-69
2023/06/27 07:18:40;;;;;;;;;4.50;4.50;;;;;22.10;50.03;101402.25;5056109;28;45615;-69
2023/06/27 07:21:06;;;;;;;;;6.00;6.00;;;;;22.22;50.12;101404.00;5055279;28;46465;-71
2023/06/27 07:23:31;;;;;;;;;4.50;4.50;;;;;22.23;49.64;101394.97;5055449;28;45409;-72
2023/06/27 07:25:57;;;;;;;;;6.00;5.00;;;;;22.26;49.62;101410.81;5054183;28;51864;-69
2023/06/27 07:28:23;;;;;;;;;4.75;4.75;;;;;21.80;49.57;101334.88;5052524;28;45487;-68
2023/06/27 07:30:48;;;;;;;;;5.50;5.50;;;;;22.24;49.46;101410.09;5054713;28;46046;-68
2023/06/27 07:33:13;;;;;;;;;6.00;6.00;;;;;22.31;49.66;101410.50;5035998;28;45605;-70
2023/06/27 07:35:39;;;;;;;;;4.75;4.75;;;;;22.40;49.45;101406.25;5038217;28;45600;-69
2023/06/27 07:38:04;;;;;;;;;3.25;2.75;;;;;22.45;49.17;101412.16;5057138;28;45552;-66
2023/06/27 07:40:30;;;;;;;;;4.00;4.00;;;;;22.45;48.24;101412.16;5057430;28;46111;-69
2023/06/27 07:42:55;;;;;;;;;4.25;4.25;;;;;22.50;48.64;101414.44;5058012;28;45441;-68
2023/06/27 07:45:21;;;;;;;;;6.00;6.00;;;;;22.61;48.76;101418.00;5058250;28;45199;-70
2023/06/27 07:47:46;;;;;;;;;5.00;5.00;;;;;22.60;47.85;101404.72;5058513;28;45624;-67
2023/06/27 07:50:12;;;;;;;;;6.50;6.50;;;;;22.80;48.22;101419.25;5058090;28;45771;-68
2023/06/27 07:52:37;;;;;;;;;4.00;4.00;;;;;22.87;47.82;101419.63;5058241;28;45374;-68
2023/06/27 07:55:03;;;;;;;;;5.00;5.00;;;;;22.93;47.54;101412.91;5058094;28;45354;-65
2023/06/27 07:57:28;;;;;;;;;3.75;3.75;;;;;23.07;47.76;101409.13;5058204;28;45225;-69
2023/06/27 07:59:53;;;;;;;;;4.75;4.75;;;;;23.08;47.71;101411.66;5057422;28;56398;-67
2023/06/27 08:02:18;;;;;;;;;4.50;4.50;;;;;23.24;47.13;101415.81;5057567;28;58541;-66
2023/06/27 08:04:44;;;;;;;;;8.00;6.75;;;;;23.38;46.74;101418.25;5039016;28;45315;-65
2023/06/27 08:07:09;;;;;;;;;6.00;6.00;;;;;23.40;46.18;101400.19;5039968;28;45275;-68
2023/06/27 08:09:35;;;;;;;;;4.50;4.50;;;;;23.59;46.12;101407.56;5056728;28;46954;-67
2023/06/27 08:12:00;;;;;;;;;6.00;6.00;;;;;23.75;46.15;101414.34;5057685;28;50740;-66
2023/06/27 08:14:27;;;;;;;;;5.00;5.00;;;;;23.83;45.56;101413.72;5059433;28;45931;-67
2023/06/27 08:16:52;;;;;;;;;3.00;3.00;;;;;23.93;45.39;101411.97;5060298;28;45343;-68
2023/06/27 08:19:18;;;;;;;;;5.50;5.50;;;;;24.02;45.54;101403.16;5058007;28;46281;-66
2023/06/27 08:21:43;;;;;;;;;4.25;4.25;;;;;24.09;44.95;101405.31;5039137;28;45401;-66
2023/06/27 08:24:08;;;;;;;;;5.00;5.00;;;;;24.07;44.46;101405.47;5058123;28;45365;-66
2023/06/27 08:26:34;;;;;;;;;5.25;5.25;;;;;24.24;44.97;101395.13;5058104;28;45278;-68
2023/06/27 08:28:59;;;;;;;;;6.50;6.50;;;;;24.56;44.30;101402.22;5057456;28;49885;-66
2023/06/27 08:31:25;;;;;;;;;4.75;4.75;;;;;24.56;43.53;101386.09;5057640;28;45372;-69
2023/06/27 08:33:50;;;;;;;;;8.00;8.00;;;;;24.61;43.43;101400.84;5058282;28;45380;-67
2023/06/27 08:36:15;;;;;;;;;4.50;4.50;;;;;24.75;43.25;101388.06;5058595;28;45220;-66
2023/06/27 08:38:41;;;;;;;;;5.25;5.25;;;;;24.91;43.30;101393.78;5059464;28;45742;-67
2023/06/27 08:41:09;;;;;;;;;4.75;4.75;;;;;24.96;42.72;101384.44;5060475;28;45318;-68
2023/06/27 08:43:35;;;;;;;;;2.00;2.00;;;;;25.02;42.15;101381.22;5059824;28;45299;-68
2023/06/27 08:46:01;;;;;;;;;4.75;4.00;;;;;25.15;41.62;101387.19;5041146;28;45400;-66
2023/06/27 08:48:27;;;;;;;;;12.25;12.25;;;;;25.22;41.00;101387.50;5057824;28;46984;-67
2023/06/27 08:50:54;;;;;;;;;3.50;3.50;;;;;25.10;41.13;101354.44;5058403;28;45532;-67
2023/06/27 08:53:22;;;;;;;;;4.00;4.00;;;;;25.48;40.64;101381.63;5061164;28;45225;-71
2023/06/27 08:56:04;;;;;;;;;4.00;4.00;;;;;25.54;40.27;101385.59;5058464;28;45211;-67
2023/06/27 08:58:49;;;;;;;;;2.75;2.75;;;;;25.49;39.73;101386.88;5057730;28;46158;-69
2023/06/27 09:01:15;;;;;;;;;3.25;3.25;;;;;25.76;39.26;101379.94;5057446;28;72015;-69
2023/06/27 09:03:40;;;;;;;;;3.00;3.00;;;;;26.05;39.41;101384.44;5057011;28;45327;-67
2023/06/27 09:06:07;;;;;;;;;2.25;2.25;;;;;26.30;39.00;101384.00;5057086;28;45577;-66
2023/06/27 09:08:33;;;;;;;;;6.25;5.25;;;;;26.33;38.87;101373.75;5056766;28;46420;-66
2023/06/27 09:11:00;;;;;;;;;4.00;4.00;;;;;26.53;39.06;101377.25;5056806;28;45359;-70
2023/06/27 09:13:26;;;;;;;;;3.00;3.00;;;;;26.89;38.20;101367.63;5057198;28;45390;-68
2023/06/27 09:15:52;;;;;;;;;3.25;3.25;;;;;27.17;37.66;101376.56;5038924;28;45310;-70
2023/06/27 09:18:18;;;;;;;;;3.50;3.50;;;;;27.08;37.47;101353.16;5057391;28;45318;-68
2023/06/27 09:20:44;;;;;;;;;4.00;4.00;;;;;27.26;37.47;101362.13;5056285;28;45422;-71
2023/06/27 09:23:10;;;;;;;;;24.25;24.25;;;;;27.31;36.44;101340.09;5038903;28;45871;-68
2023/06/27 09:25:36;;;;;;;;;5.25;5.25;;;;;27.59;36.23;101347.31;5056462;28;45303;-68
2023/06/27 09:28:15;;;;;;;;;3.75;3.75;;;;;27.68;36.54;101330.16;5056214;28;45302;-66
2023/06/27 09:30:51;;;;;;;;;1.00;1.00;;;;;27.71;35.59;101351.47;5056582;28;45425;-66
2023/06/27 09:33:18;;;;;;;;;2.25;2.25;;;;;27.58;35.07;101332.94;5037924;28;45395;-68
2023/06/27 09:35:44;;;;;;;;;2.25;2.25;;;;;27.51;34.57;101339.97;5056365;28;45368;-67
2023/06/27 09:38:10;;;;;;;;;5.75;5.75;;;;;27.55;34.78;101339.47;5056842;28;46006;-67
2023/06/27 09:40:36;;;;;;;;;4.00;4.00;;;;;27.72;33.65;101339.66;5039013;28;45751;-69
2023/06/27 09:43:04;;;;;;;;;3.00;3.00;;;;;27.78;33.50;101336.31;5055988;28;45335;-68
2023/06/27 09:45:30;;;;;;;;;3.25;3.25;;;;;27.71;33.95;101319.03;5057691;28;45441;-67
2023/06/27 09:47:57;;;;;;;;;4.75;3.25;;;;;27.60;34.53;101330.09;5056805;28;45449;-69
2023/06/27 09:50:31;;;;;;;;;5.00;5.00;;;;;27.34;34.40;101284.91;5057109;28;45276;-70
2023/06/27 09:53:00;;;;;;;;;10.75;10.75;;;;;27.74;34.61;101320.56;5056499;28;45419;-70
2023/06/27 09:55:26;;;;;;;;;8.50;8.50;;;;;27.88;34.67;101313.75;5038797;28;45561;-69
2023/06/27 09:57:52;;;;;;;;;8.00;8.00;;;;;28.10;34.33;101309.63;5055222;28;45256;-70
2023/06/27 10:00:22;;;;;;;;;3.25;3.25;;;;;28.04;34.38;101319.25;5056446;28;45313;-68
2023/06/27 10:02:51;;;;;;;;;7.00;7.00;;;;;27.92;34.46;101326.75;5057292;28;45495;-67
2023/06/27 10:05:18;;;;;;;;;3.75;3.75;;;;;28.19;34.26;101313.28;5056233;28;45202;-67
2023/06/27 10:07:44;;;;;;;;;3.00;3.00;;;;;28.40;33.28;101321.00;5055679;28;45395;-67
2023/06/27 10:10:11;;;;;;;;;5.50;5.50;;;;;28.32;32.90;101321.81;5055550;28;45528;-67
2023/06/27 10:12:36;;;;;;;;;2.75;2.75;;;;;28.50;32.62;101313.63;5037725;28;45377;-66
2023/06/27 10:15:03;;;;;;;;;5.00;5.00;;;;;28.72;31.60;101312.19;5055583;28;45619;-66
2023/06/27 10:17:29;;;;;;;;;5.00;5.00;;;;;28.89;31.90;101314.13;5055626;28;46367;-69
2023/06/27 10:19:55;;;;;;;;;11.50;11.50;;;;;28.88;31.93;101307.00;5055915;28;45376;-67
2023/06/27 10:22:29;;;;;;;;;4.25;4.25;;;;;28.91;31.61;101296.72;5056102;28;45187;-69
2023/06/27 10:24:59;;;;;;;;;5.00;5.00;;;;;29.08;30.98;101315.69;5057746;28;45442;-69
2023/06/27 10:27:25;;;;;;;;;7.25;7.25;;;;;29.00;31.10;101311.97;5056303;28;45395;-68
2023/06/27 10:29:51;;;;;;;;;7.00;7.00;;;;;28.84;30.66;101303.78;5038690;28;45326;-72
2023/06/27 10:32:20;;;;;;;;;8.25;8.25;;;;;28.64;31.05;101301.34;5037802;28;45429;-72
2023/06/27 10:34:49;;;;;;;;;4.00;4.00;;;;;28.38;30.42;101280.56;5056445;28;45513;-70
2023/06/27 10:37:25;;;;;;;;;6.00;5.25;;;;;28.45;30.86;101304.28;5037451;28;46672;-71
2023/06/27 10:40:03;;;;;;;;;3.00;3.00;;;;;28.13;30.27;101312.91;5037018;28;45344;-73
2023/06/27 10:42:31;;;;;;;;;6.00;6.00;;;;;28.06;30.71;101311.84;5037788;28;45398;-68
2023/06/27 10:45:00;;;;;;;;;2.75;2.75;;;;;28.18;31.24;101307.03;5056795;28;45257;-70
2023/06/27 10:47:27;;;;;;;;;9.00;8.25;;;;;28.41;30.83;101312.72;5038090;28;47550;-71
2023/06/27 10:50:00;;;;;;;;;2.00;2.00;;;;;28.57;30.95;101313.81;5056292;28;45414;-70
2023/06/27 10:52:26;;;;;;;;;5.00;5.00;;;;;28.61;30.69;101301.63;5038221;28;45389;-69
2023/06/27 10:55:18;;;;;;;;;3.00;3.00;;;;;28.31;30.40;101314.69;5057056;28;45361;-69
2023/06/27 10:57:47;;;;;;;;;3.50;3.50;;;;;28.03;30.55;101306.75;5055599;28;45294;-66
2023/06/27 11:00:23;;;;;;;;;2.25;2.25;;;;;27.81;31.12;101310.81;5036765;28;45525;-69
2023/06/27 11:02:50;;;;;;;;;3.00;3.00;;;;;27.53;31.11;101306.34;5055024;28;45467;-66
2023/06/27 11:05:16;;;;;;;;;4.00;4.00;;;;;27.56;31.02;101322.25;5054475;28;45589;-70
2023/06/27 11:07:58;;;;;;;;;4.00;4.00;;;;;27.78;30.72;101320.09;5053737;28;45514;-71
2023/06/27 11:10:26;;;;;;;;;2.00;2.00;;;;;28.21;30.93;101311.25;5049020;28;45324;-71
2023/06/27 11:13:12;;;;;;;;;3.75;3.75;;;;;28.59;31.27;101314.47;5054993;28;45367;-72
2023/06/27 11:15:38;;;;;;;;;3.75;3.75;;;;;28.65;30.36;101294.91;5056737;28;45438;-71
2023/06/27 11:18:05;;;;;;;;;2.50;2.50;;;;;28.86;29.68;101299.91;5036744;28;47533;-72
2023/06/27 11:20:31;;;;;;;;;4.00;4.00;;;;;28.79;29.80;101279.91;5036138;28;45330;-71
2023/06/27 11:23:01;;;;;;;;;3.25;3.25;;;;;29.22;29.46;101306.91;5053150;28;45506;-73